Pima, AZ (85543)

7:58 AM MST on December 18, 2014 (GMT -0700)
Safford Regional | Change Station
CLOSE
Current Station
Airport
Location: Safford,
Elevation: 3176 ft
Nearby Weather Stations

Elev 3176 ft 32.86 °N, 109.64 °W | Updated 7 minutes ago

Overcast
Overcast
43 °F
Feels Like 40 °F
N
6
Wind Variable Wind from ESE

Today
High -- | Low -- °F
--% Chance of Precip.
Yesterday
High -- | Low -- °F
Precip. -- in
7:16 AM 5:15 PM
Waning Crescent, 14% visible
Pressure 30.11 in
Visibility 10.0 miles
Clouds Mostly Cloudy 2400 ft
Overcast 8000 ft
Windchill 40 °F
Dew Point 41 °F
Humidity 93%
Rainfall 0.00 in
Snow Depth Not available.
UV 0 out of 12
Pollen 4.20 out of 12
Air Quality Not available.
Flu Activity Not available.
METAR KSAD 181451Z AUTO 11005KT 10SM BKN024 OVC080 06/05 A3013 RMK AO2 SLP195 T00610050 51004

More Conditions Fewer Conditions

Pressure 30.11 in
Visibility 10.0 miles
Clouds Mostly Cloudy 2400 ft
Overcast 8000 ft
Windchill 40 °F
Dew Point 41 °F
Humidity 93%
Rainfall 0.00 in
Snow Depth Not available.
UV 0 out of 12
Pollen 4.20 out of 12
Air Quality Not available.
Flu Activity Not available.
METAR KSAD 181451Z AUTO 11005KT 10SM BKN024 OVC080 06/05 A3013 RMK AO2 SLP195 T00610050 51004

More Conditions Fewer Conditions

Nowcast | as of 6:11 am MST on December 18, 2014

Scattered areas of light rain or sprinkles will pass over the region for the next hour or two. Elevations above 7000 feet will see mainly flurries but isolated areas ridge tops could get another inch of snow before tapering off later this morning. Expect areas of fog in low lying and sheltered areas. Visibility along secondary roads could briefly get a low as a mile. Skies will remain cloudy for the rest of the morning hours.

×

10-Day Weather Forecast

Almanac

Astronomy

Dec. 18, 2014 Rise Set
Actual Time
Civil Twilight
Nautical Twilight
Astronomical Twilight
Moon
Length of Visible Light
Length of Day
Tomorrow will be .
, % of the Moon is Illuminated

Today's Extremes

State Highs State Lows

Community

WunderPhotos

Upload Photos

1,778,929 photos uploaded!

WunderBlogs® & News

Nearby

Air Quality

  Air Quality AQ Index Pollutant
Not available.

Snow Depth

Station Depth Elevation

Earthquake Activity

City Distance Mag. Time & Date
Minimum magnitude displayed is 2.5.

Coastal Water Temperatures

Place Temperature

Nearby Weather Stations